sensor_id;sensor_type;location;lat;lon;timestamp;temperature;humidity
22290;DHT22;11313;50.116;8.424;2023-03-01T00:01:04;24.80;36.70
22290;DHT22;11313;50.116;8.424;2023-03-01T00:03:32;24.70;36.70
22290;DHT22;11313;50.116;8.424;2023-03-01T00:05:58;24.70;36.70
22290;DHT22;11313;50.116;8.424;2023-03-01T00:08:24;24.70;37.30
22290;DHT22;11313;50.116;8.424;2023-03-01T00:10:59;24.70;36.70
22290;DHT22;11313;50.116;8.424;2023-03-01T00:13:24;24.70;36.70
22290;DHT22;11313;50.116;8.424;2023-03-01T00:15:49;24.70;36.70
22290;DHT22;11313;50.116;8.424;2023-03-01T00:18:15;24.70;36.70
22290;DHT22;11313;50.116;8.424;2023-03-01T00:20:40;24.70;36.70
22290;DHT22;11313;50.116;8.424;2023-03-01T00:23:06;24.70;36.70
22290;DHT22;11313;50.116;8.424;2023-03-01T00:25:31;24.70;36.70
22290;DHT22;11313;50.116;8.424;2023-03-01T00:27:57;24.70;36.70
22290;DHT22;11313;50.116;8.424;2023-03-01T00:30:22;24.70;36.70
22290;DHT22;11313;50.116;8.424;2023-03-01T00:32:48;24.70;36.70
22290;DHT22;11313;50.116;8.424;2023-03-01T00:35:13;24.70;36.70
22290;DHT22;11313;50.116;8.424;2023-03-01T00:37:39;24.70;36.70
22290;DHT22;11313;50.116;8.424;2023-03-01T00:40:07;24.70;36.70
22290;DHT22;11313;50.116;8.424;2023-03-01T00:42:33;24.70;36.70
22290;DHT22;11313;50.116;8.424;2023-03-01T00:44:58;24.70;36.70
22290;DHT22;11313;50.116;8.424;2023-03-01T00:47:23;24.70;36.70
22290;DHT22;11313;50.116;8.424;2023-03-01T00:49:49;24.70;36.60
22290;DHT22;11313;50.116;8.424;2023-03-01T00:52:14;24.70;36.70
22290;DHT22;11313;50.116;8.424;2023-03-01T00:54:40;24.70;36.60
22290;DHT22;11313;50.116;8.424;2023-03-01T00:57:05;24.70;36.70
22290;DHT22;11313;50.116;8.424;2023-03-01T00:59:31;24.70;36.70
22290;DHT22;11313;50.116;8.424;2023-03-01T01:01:56;24.70;36.60
22290;DHT22;11313;50.116;8.424;2023-03-01T01:04:22;24.80;36.70
22290;DHT22;11313;50.116;8.424;2023-03-01T01:06:47;24.70;36.60
22290;DHT22;11313;50.116;8.424;2023-03-01T01:09:15;24.70;36.60
22290;DHT22;11313;50.116;8.424;2023-03-01T01:11:50;24.70;36.60
22290;DHT22;11313;50.116;8.424;2023-03-01T01:14:16;24.70;36.60
22290;DHT22;11313;50.116;8.424;2023-03-01T01:16:42;24.70;36.60
22290;DHT22;11313;50.116;8.424;2023-03-01T01:19:07;24.70;36.60
22290;DHT22;11313;50.116;8.424;2023-03-01T01:21:34;24.70;36.60
22290;DHT22;11313;50.116;8.424;2023-03-01T01:23:59;24.70;36.60
22290;DHT22;11313;50.116;8.424;2023-03-01T01:26:27;24.70;36.60
22290;DHT22;11313;50.116;8.424;2023-03-01T01:28:54;24.70;36.60
22290;DHT22;11313;50.116;8.424;2023-03-01T01:31:21;24.70;36.60
22290;DHT22;11313;50.116;8.424;2023-03-01T01:33:49;24.70;36.60
22290;DHT22;11313;50.116;8.424;2023-03-01T01:36:14;24.70;36.60
22290;DHT22;11313;50.116;8.424;2023-03-01T01:38:41;24.70;36.60
22290;DHT22;11313;50.116;8.424;2023-03-01T01:41:09;24.70;36.60
22290;DHT22;11313;50.116;8.424;2023-03-01T01:43:42;24.70;36.60
22290;DHT22;11313;50.116;8.424;2023-03-01T01:46:32;24.70;36.60
22290;DHT22;11313;50.116;8.424;2023-03-01T01:49:03;24.70;36.70
22290;DHT22;11313;50.116;8.424;2023-03-01T01:51:33;24.70;36.60
22290;DHT22;11313;50.116;8.424;2023-03-01T01:54:10;24.70;36.70
22290;DHT22;11313;50.116;8.424;2023-03-01T01:56:38;24.70;36.70
22290;DHT22;11313;50.116;8.424;2023-03-01T01:59:05;24.70;36.60
22290;DHT22;11313;50.116;8.424;2023-03-01T02:01:31;24.70;36.70
22290;DHT22;11313;50.116;8.424;2023-03-01T02:03:56;24.70;36.60
22290;DHT22;11313;50.116;8.424;2023-03-01T02:06:32;24.70;36.70
22290;DHT22;11313;50.116;8.424;2023-03-01T02:09:02;24.70;36.70
22290;DHT22;11313;50.116;8.424;2023-03-01T02:11:31;24.70;36.70
22290;DHT22;11313;50.116;8.424;2023-03-01T02:13:57;24.70;36.70
22290;DHT22;11313;50.116;8.424;2023-03-01T02:16:23;24.70;36.70
22290;DHT22;11313;50.116;8.424;2023-03-01T02:18:49;24.70;36.70
22290;DHT22;11313;50.116;8.424;2023-03-01T02:21:46;24.70;36.60
22290;DHT22;11313;50.116;8.424;2023-03-01T02:24:18;24.70;36.70
22290;DHT22;11313;50.116;8.424;2023-03-01T02:26:49;24.70;36.70
22290;DHT22;11313;50.116;8.424;2023-03-01T02:29:15;24.70;36.80
22290;DHT22;11313;50.116;8.424;2023-03-01T02:31:41;24.70;36.60
22290;DHT22;11313;50.116;8.424;2023-03-01T02:34:18;24.70;36.70
22290;DHT22;11313;50.116;8.424;2023-03-01T02:36:53;24.70;36.60
22290;DHT22;11313;50.116;8.424;2023-03-01T02:39:25;24.70;36.60
22290;DHT22;11313;50.116;8.424;2023-03-01T02:41:53;24.70;36.60
22290;DHT22;11313;50.116;8.424;2023-03-01T02:44:19;24.70;36.50
22290;DHT22;11313;50.116;8.424;2023-03-01T02:46:53;24.70;37.20
22290;DHT22;11313;50.116;8.424;2023-03-01T02:49:31;24.70;36.60
22290;DHT22;11313;50.116;8.424;2023-03-01T02:52:38;24.70;36.50
22290;DHT22;11313;50.116;8.424;2023-03-01T02:55:09;24.70;36.50
22290;DHT22;11313;50.116;8.424;2023-03-01T02:57:38;24.80;36.50
22290;DHT22;11313;50.116;8.424;2023-03-01T03:00:14;24.70;36.50
22290;DHT22;11313;50.116;8.424;2023-03-01T03:02:51;24.70;36.50
22290;DHT22;11313;50.116;8.424;2023-03-01T03:05:18;24.70;36.50
22290;DHT22;11313;50.116;8.424;2023-03-01T03:07:45;24.80;36.50
22290;DHT22;11313;50.116;8.424;2023-03-01T03:10:18;24.80;36.40
22290;DHT22;11313;50.116;8.424;2023-03-01T03:12:49;24.80;36.40
22290;DHT22;11313;50.116;8.424;2023-03-01T03:15:14;24.80;36.40
22290;DHT22;11313;50.116;8.424;2023-03-01T03:17:41;24.80;36.40
22290;DHT22;11313;50.116;8.424;2023-03-01T03:20:08;24.80;36.40
22290;DHT22;11313;50.116;8.424;2023-03-01T03:22:38;24.80;36.40
22290;DHT22;11313;50.116;8.424;2023-03-01T03:25:05;24.80;36.40
22290;DHT22;11313;50.116;8.424;2023-03-01T03:27:38;24.80;36.40
22290;DHT22;11313;50.116;8.424;2023-03-01T03:30:07;24.80;36.30
22290;DHT22;11313;50.116;8.424;2023-03-01T03:32:37;24.80;36.40
22290;DHT22;11313;50.116;8.424;2023-03-01T03:35:04;24.90;36.40
22290;DHT22;11313;50.116;8.424;2023-03-01T03:37:39;24.90;36.30
22290;DHT22;11313;50.116;8.424;2023-03-01T03:40:24;24.80;36.30
22290;DHT22;11313;50.116;8.424;2023-03-01T03:42:49;24.80;36.30
22290;DHT22;11313;50.116;8.424;2023-03-01T03:45:16;24.90;36.30
22290;DHT22;11313;50.116;8.424;2023-03-01T03:47:42;24.80;36.40
22290;DHT22;11313;50.116;8.424;2023-03-01T03:50:10;24.90;36.40
22290;DHT22;11313;50.116;8.424;2023-03-01T03:52:36;24.80;36.30
22290;DHT22;11313;50.116;8.424;2023-03-01T03:55:01;24.80;36.30
22290;DHT22;11313;50.116;8.424;2023-03-01T03:57:27;24.80;36.30
22290;DHT22;11313;50.116;8.424;2023-03-01T03:59:52;24.80;36.30
22290;DHT22;11313;50.116;8.424;2023-03-01T04:02:18;24.80;36.30
22290;DHT22;11313;50.116;8.424;2023-03-01T04:04:48;24.80;36.30
22290;DHT22;11313;50.116;8.424;2023-03-01T04:07:15;24.80;36.30
22290;DHT22;11313;50.116;8.424;2023-03-01T04:09:41;24.80;36.30
22290;DHT22;11313;50.116;8.424;2023-03-01T04:12:08;24.80;36.30
22290;DHT22;11313;50.116;8.424;2023-03-01T04:14:33;24.80;36.30
22290;DHT22;11313;50.116;8.424;2023-03-01T04:16:59;24.80;36.30
22290;DHT22;11313;50.116;8.424;2023-03-01T04:19:24;24.80;36.30
22290;DHT22;11313;50.116;8.424;2023-03-01T04:21:50;24.80;36.30
22290;DHT22;11313;50.116;8.424;2023-03-01T04:24:15;24.80;36.30
22290;DHT22;11313;50.116;8.424;2023-03-01T04:26:41;24.80;36.30
22290;DHT22;11313;50.116;8.424;2023-03-01T04:29:07;24.80;36.30
22290;DHT22;11313;50.116;8.424;2023-03-01T04:31:32;24.80;36.30
22290;DHT22;11313;50.116;8.424;2023-03-01T04:33:59;24.70;36.20
22290;DHT22;11313;50.116;8.424;2023-03-01T04:36:27;24.70;36.30
22290;DHT22;11313;50.116;8.424;2023-03-01T04:38:54;24.70;36.30
22290;DHT22;11313;50.116;8.424;2023-03-01T04:41:22;24.70;36.20
22290;DHT22;11313;50.116;8.424;2023-03-01T04:43:48;24.70;36.20
22290;DHT22;11313;50.116;8.424;2023-03-01T04:46:17;24.80;36.30
22290;DHT22;11313;50.116;8.424;2023-03-01T04:48:44;24.70;36.20
22290;DHT22;11313;50.116;8.424;2023-03-01T04:51:10;24.80;36.20
22290;DHT22;11313;50.116;8.424;2023-03-01T04:53:38;24.80;36.20
22290;DHT22;11313;50.116;8.424;2023-03-01T04:56:04;24.80;36.30
22290;DHT22;11313;50.116;8.424;2023-03-01T04:58:30;24.80;36.20
22290;DHT22;11313;50.116;8.424;2023-03-01T05:00:56;24.70;36.10
22290;DHT22;11313;50.116;8.424;2023-03-01T05:03:22;24.80;36.20
22290;DHT22;11313;50.116;8.424;2023-03-01T05:05:49;24.80;36.20
22290;DHT22;11313;50.116;8.424;2023-03-01T05:08:15;24.80;36.30
22290;DHT22;11313;50.116;8.424;2023-03-01T05:10:45;24.70;36.20
22290;DHT22;11313;50.116;8.424;2023-03-01T05:13:12;24.70;36.20
22290;DHT22;11313;50.116;8.424;2023-03-01T05:15:39;24.70;36.20
22290;DHT22;11313;50.116;8.424;2023-03-01T05:18:05;24.70;36.30
22290;DHT22;11313;50.116;8.424;2023-03-01T05:20:36;24.70;36.30
22290;DHT22;11313;50.116;8.424;2023-03-01T05:23:02;24.70;36.50
22290;DHT22;11313;50.116;8.424;2023-03-01T05:25:31;24.70;36.60
22290;DHT22;11313;50.116;8.424;2023-03-01T05:28:01;24.70;36.60
22290;DHT22;11313;50.116;8.424;2023-03-01T05:30:30;24.80;36.70
22290;DHT22;11313;50.116;8.424;2023-03-01T05:32:56;24.80;36.90
22290;DHT22;11313;50.116;8.424;2023-03-01T05:35:22;24.80;37.10
22290;DHT22;11313;50.116;8.424;2023-03-01T05:37:48;24.80;37.50
22290;DHT22;11313;50.116;8.424;2023-03-01T05:40:16;24.80;37.70
22290;DHT22;11313;50.116;8.424;2023-03-01T05:42:53;24.90;37.80
22290;DHT22;11313;50.116;8.424;2023-03-01T05:45:20;24.90;38.00
22290;DHT22;11313;50.116;8.424;2023-03-01T05:47:48;24.80;38.50
22290;DHT22;11313;50.116;8.424;2023-03-01T05:52:47;24.90;38.00
22290;DHT22;11313;50.116;8.424;2023-03-01T05:55:14;24.90;38.00
22290;DHT22;11313;50.116;8.424;2023-03-01T05:57:40;24.90;38.00
22290;DHT22;11313;50.116;8.424;2023-03-01T06:00:07;24.90;38.10
22290;DHT22;11313;50.116;8.424;2023-03-01T06:02:32;24.90;38.00
22290;DHT22;11313;50.116;8.424;2023-03-01T06:04:58;24.90;38.00
22290;DHT22;11313;50.116;8.424;2023-03-01T06:07:23;24.90;37.90
22290;DHT22;11313;50.116;8.424;2023-03-01T06:09:49;24.90;37.90
22290;DHT22;11313;50.116;8.424;2023-03-01T06:12:14;24.90;37.90
22290;DHT22;11313;50.116;8.424;2023-03-01T06:14:40;24.90;37.80
22290;DHT22;11313;50.116;8.424;2023-03-01T06:17:05;24.90;37.80
22290;DHT22;11313;50.116;8.424;2023-03-01T06:19:31;24.90;37.80
22290;DHT22;11313;50.116;8.424;2023-03-01T06:21:56;24.90;37.70
22290;DHT22;11313;50.116;8.424;2023-03-01T06:24:22;24.90;37.70
22290;DHT22;11313;50.116;8.424;2023-03-01T06:26:47;24.90;37.70
22290;DHT22;11313;50.116;8.424;2023-03-01T06:29:12;25.00;37.70
22290;DHT22;11313;50.116;8.424;2023-03-01T06:31:39;24.90;37.60
22290;DHT22;11313;50.116;8.424;2023-03-01T06:34:05;24.90;37.60
22290;DHT22;11313;50.116;8.424;2023-03-01T06:36:31;24.90;37.60
22290;DHT22;11313;50.116;8.424;2023-03-01T06:38:56;25.00;37.60
22290;DHT22;11313;50.116;8.424;2023-03-01T06:41:22;25.00;37.60
22290;DHT22;11313;50.116;8.424;2023-03-01T06:43:47;25.00;37.60
22290;DHT22;11313;50.116;8.424;2023-03-01T06:46:13;25.00;37.60
22290;DHT22;11313;50.116;8.424;2023-03-01T06:48:38;25.00;37.50
22290;DHT22;11313;50.116;8.424;2023-03-01T06:51:04;25.00;37.50
22290;DHT22;11313;50.116;8.424;2023-03-01T06:53:29;25.00;37.50
22290;DHT22;11313;50.116;8.424;2023-03-01T06:55:56;25.00;37.50
22290;DHT22;11313;50.116;8.424;2023-03-01T06:58:22;25.00;37.50
22290;DHT22;11313;50.116;8.424;2023-03-01T07:00:47;25.00;37.40
22290;DHT22;11313;50.116;8.424;2023-03-01T07:03:13;25.00;37.50
22290;DHT22;11313;50.116;8.424;2023-03-01T07:05:38;25.00;37.40
22290;DHT22;11313;50.116;8.424;2023-03-01T07:08:04;25.00;37.40
22290;DHT22;11313;50.116;8.424;2023-03-01T07:10:29;25.00;37.40
22290;DHT22;11313;50.116;8.424;2023-03-01T07:12:56;25.00;37.30
22290;DHT22;11313;50.116;8.424;2023-03-01T07:15:22;25.00;37.30
22290;DHT22;11313;50.116;8.424;2023-03-01T07:17:47;25.00;37.30
22290;DHT22;11313;50.116;8.424;2023-03-01T07:20:16;25.00;37.30
22290;DHT22;11313;50.116;8.424;2023-03-01T07:22:42;25.00;37.30
22290;DHT22;11313;50.116;8.424;2023-03-01T07:25:08;25.00;37.30
22290;DHT22;11313;50.116;8.424;2023-03-01T07:27:34;25.00;37.20
22290;DHT22;11313;50.116;8.424;2023-03-01T07:30:00;25.00;37.20
22290;DHT22;11313;50.116;8.424;2023-03-01T07:32:25;25.00;37.20
22290;DHT22;11313;50.116;8.424;2023-03-01T07:34:51;25.00;37.10
22290;DHT22;11313;50.116;8.424;2023-03-01T07:37:16;25.00;37.20
22290;DHT22;11313;50.116;8.424;2023-03-01T07:39:42;25.00;37.20
22290;DHT22;11313;50.116;8.424;2023-03-01T07:42:08;25.00;37.20
22290;DHT22;11313;50.116;8.424;2023-03-01T07:44:33;25.00;37.20
22290;DHT22;11313;50.116;8.424;2023-03-01T07:47:00;25.00;37.20
22290;DHT22;11313;50.116;8.424;2023-03-01T07:49:26;25.00;37.20
22290;DHT22;11313;50.116;8.424;2023-03-01T07:51:52;24.90;37.10
22290;DHT22;11313;50.116;8.424;2023-03-01T07:54:18;25.00;37.20
22290;DHT22;11313;50.116;8.424;2023-03-01T07:56:43;24.90;37.10
22290;DHT22;11313;50.116;8.424;2023-03-01T07:59:09;24.90;37.10
22290;DHT22;11313;50.116;8.424;2023-03-01T08:01:35;24.90;37.10
22290;DHT22;11313;50.116;8.424;2023-03-01T08:04:00;24.90;37.10
22290;DHT22;11313;50.116;8.424;2023-03-01T08:06:27;25.00;37.10
22290;DHT22;11313;50.116;8.424;2023-03-01T08:08:52;24.90;37.10
22290;DHT22;11313;50.116;8.424;2023-03-01T08:11:20;24.90;37.00
22290;DHT22;11313;50.116;8.424;2023-03-01T08:13:47;24.90;37.00
22290;DHT22;11313;50.116;8.424;2023-03-01T08:16:14;24.90;37.00
22290;DHT22;11313;50.116;8.424;2023-03-01T08:18:40;24.90;37.00
22290;DHT22;11313;50.116;8.424;2023-03-01T08:21:08;25.00;37.10
22290;DHT22;11313;50.116;8.424;2023-03-01T08:23:34;24.90;37.00
22290;DHT22;11313;50.116;8.424;2023-03-01T08:26:15;24.90;37.00
22290;DHT22;11313;50.116;8.424;2023-03-01T08:28:40;24.90;37.00
22290;DHT22;11313;50.116;8.424;2023-03-01T08:33:50;24.90;36.90
22290;DHT22;11313;50.116;8.424;2023-03-01T08:36:21;25.00;37.00
22290;DHT22;11313;50.116;8.424;2023-03-01T08:38:46;25.00;37.00
22290;DHT22;11313;50.116;8.424;2023-03-01T08:41:12;25.00;37.00
22290;DHT22;11313;50.116;8.424;2023-03-01T08:43:38;25.00;37.00
22290;DHT22;11313;50.116;8.424;2023-03-01T08:46:03;25.00;36.90
22290;DHT22;11313;50.116;8.424;2023-03-01T08:48:29;25.00;36.90
22290;DHT22;11313;50.116;8.424;2023-03-01T08:50:55;25.00;36.90
22290;DHT22;11313;50.116;8.424;2023-03-01T08:53:20;25.00;36.90
22290;DHT22;11313;50.116;8.424;2023-03-01T08:55:46;25.00;36.90
22290;DHT22;11313;50.116;8.424;2023-03-01T08:58:11;25.00;36.90
22290;DHT22;11313;50.116;8.424;2023-03-01T09:00:37;25.00;36.90
22290;DHT22;11313;50.116;8.424;2023-03-01T09:03:03;24.90;36.80
22290;DHT22;11313;50.116;8.424;2023-03-01T09:05:32;25.00;36.90
22290;DHT22;11313;50.116;8.424;2023-03-01T09:07:58;25.00;36.90
22290;DHT22;11313;50.116;8.424;2023-03-01T09:10:23;25.00;36.90
22290;DHT22;11313;50.116;8.424;2023-03-01T09:12:49;25.00;36.80
22290;DHT22;11313;50.116;8.424;2023-03-01T09:15:14;25.00;36.90
22290;DHT22;11313;50.116;8.424;2023-03-01T09:17:40;24.90;36.80
22290;DHT22;11313;50.116;8.424;2023-03-01T09:20:06;24.90;36.90
22290;DHT22;11313;50.116;8.424;2023-03-01T09:22:33;25.00;36.90
22290;DHT22;11313;50.116;8.424;2023-03-01T09:25:00;24.90;36.80
22290;DHT22;11313;50.116;8.424;2023-03-01T09:27:26;24.90;36.80
22290;DHT22;11313;50.116;8.424;2023-03-01T09:29:51;24.90;36.80
22290;DHT22;11313;50.116;8.424;2023-03-01T09:32:17;24.90;36.80
22290;DHT22;11313;50.116;8.424;2023-03-01T09:34:42;24.90;36.80
22290;DHT22;11313;50.116;8.424;2023-03-01T09:37:26;24.90;36.80
22290;DHT22;11313;50.116;8.424;2023-03-01T09:39:52;24.90;36.80
22290;DHT22;11313;50.116;8.424;2023-03-01T09:42:17;25.00;36.80
22290;DHT22;11313;50.116;8.424;2023-03-01T09:45:11;25.00;36.80
22290;DHT22;11313;50.116;8.424;2023-03-01T09:47:36;24.90;36.70
22290;DHT22;11313;50.116;8.424;2023-03-01T09:50:35;25.00;36.80
22290;DHT22;11313;50.116;8.424;2023-03-01T09:53:13;25.00;36.80
22290;DHT22;11313;50.116;8.424;2023-03-01T09:55:46;25.00;36.70
22290;DHT22;11313;50.116;8.424;2023-03-01T10:01:27;25.00;36.80
22290;DHT22;11313;50.116;8.424;2023-03-01T10:09:45;25.00;36.70
22290;DHT22;11313;50.116;8.424;2023-03-01T10:12:18;25.00;36.60
22290;DHT22;11313;50.116;8.424;2023-03-01T10:15:07;25.00;36.60
22290;DHT22;11313;50.116;8.424;2023-03-01T10:17:37;25.10;36.70
22290;DHT22;11313;50.116;8.424;2023-03-01T10:20:17;25.10;36.70
22290;DHT22;11313;50.116;8.424;2023-03-01T10:22:43;25.10;36.70
22290;DHT22;11313;50.116;8.424;2023-03-01T10:25:19;25.10;36.70
22290;DHT22;11313;50.116;8.424;2023-03-01T10:27:52;25.10;36.60
22290;DHT22;11313;50.116;8.424;2023-03-01T10:30:34;25.10;36.60
22290;DHT22;11313;50.116;8.424;2023-03-01T10:33:01;25.10;36.60
22290;DHT22;11313;50.116;8.424;2023-03-01T10:35:28;25.10;36.60
22290;DHT22;11313;50.116;8.424;2023-03-01T10:38:07;25.10;36.60
22290;DHT22;11313;50.116;8.424;2023-03-01T10:40:34;25.10;36.60
22290;DHT22;11313;50.116;8.424;2023-03-01T10:43:05;25.10;36.60
22290;DHT22;11313;50.116;8.424;2023-03-01T10:45:36;25.20;36.60
22290;DHT22;11313;50.116;8.424;2023-03-01T10:50:34;25.10;36.60
22290;DHT22;11313;50.116;8.424;2023-03-01T10:53:04;25.20;36.60
22290;DHT22;11313;50.116;8.424;2023-03-01T10:55:31;25.20;36.60
22290;DHT22;11313;50.116;8.424;2023-03-01T10:58:19;25.20;36.60
22290;DHT22;11313;50.116;8.424;2023-03-01T11:00:50;25.20;36.60
22290;DHT22;11313;50.116;8.424;2023-03-01T11:03:21;25.20;36.60
22290;DHT22;11313;50.116;8.424;2023-03-01T11:08:36;25.20;36.60
22290;DHT22;11313;50.116;8.424;2023-03-01T11:13:54;25.20;36.60
22290;DHT22;11313;50.116;8.424;2023-03-01T11:16:38;25.20;36.70
22290;DHT22;11313;50.116;8.424;2023-03-01T11:19:16;25.20;36.60
22290;DHT22;11313;50.116;8.424;2023-03-01T11:24:12;25.20;36.70
22290;DHT22;11313;50.116;8.424;2023-03-01T11:26:45;25.20;36.60
22290;DHT22;11313;50.116;8.424;2023-03-01T11:31:59;25.20;36.70
22290;DHT22;11313;50.116;8.424;2023-03-01T11:34:37;25.10;36.60
22290;DHT22;11313;50.116;8.424;2023-03-01T11:37:16;25.20;36.70
22290;DHT22;11313;50.116;8.424;2023-03-01T11:39:53;25.10;36.70
22290;DHT22;11313;50.116;8.424;2023-03-01T11:45:14;25.10;36.70
22290;DHT22;11313;50.116;8.424;2023-03-01T11:50:46;25.10;36.80
22290;DHT22;11313;50.116;8.424;2023-03-01T11:53:47;25.10;36.80
22290;DHT22;11313;50.116;8.424;2023-03-01T11:56:40;25.10;36.80
22290;DHT22;11313;50.116;8.424;2023-03-01T11:59:20;25.10;36.80
22290;DHT22;11313;50.116;8.424;2023-03-01T12:08:40;25.10;36.90
22290;DHT22;11313;50.116;8.424;2023-03-01T12:20:08;25.10;37.00
22290;DHT22;11313;50.116;8.424;2023-03-01T12:28:45;25.10;37.00
22290;DHT22;11313;50.116;8.424;2023-03-01T12:34:11;25.10;37.00
22290;DHT22;11313;50.116;8.424;2023-03-01T12:37:19;25.10;37.10
22290;DHT22;11313;50.116;8.424;2023-03-01T12:39:50;25.10;37.10
22290;DHT22;11313;50.116;8.424;2023-03-01T12:45:12;25.00;37.10
22290;DHT22;11313;50.116;8.424;2023-03-01T12:52:51;25.00;37.20
22290;DHT22;11313;50.116;8.424;2023-03-01T12:55:39;25.00;37.20
22290;DHT22;11313;50.116;8.424;2023-03-01T12:58:24;25.10;37.30
22290;DHT22;11313;50.116;8.424;2023-03-01T13:01:13;25.00;37.30
22290;DHT22;11313;50.116;8.424;2023-03-01T13:17:55;25.00;37.30
22290;DHT22;11313;50.116;8.424;2023-03-01T13:20:29;25.00;37.30
22290;DHT22;11313;50.116;8.424;2023-03-01T13:23:09;24.90;37.20
22290;DHT22;11313;50.116;8.424;2023-03-01T13:28:57;25.00;37.40
22290;DHT22;11313;50.116;8.424;2023-03-01T13:33:58;24.90;37.40
22290;DHT22;11313;50.116;8.424;2023-03-01T13:41:53;24.90;37.40
22290;DHT22;11313;50.116;8.424;2023-03-01T13:46:53;24.90;37.50
22290;DHT22;11313;50.116;8.424;2023-03-01T13:49:23;24.90;37.50
22290;DHT22;11313;50.116;8.424;2023-03-01T13:51:50;24.90;37.50
22290;DHT22;11313;50.116;8.424;2023-03-01T13:54:29;24.90;37.50
22290;DHT22;11313;50.116;8.424;2023-03-01T13:56:57;24.90;37.50
22290;DHT22;11313;50.116;8.424;2023-03-01T13:59:23;24.90;37.50
22290;DHT22;11313;50.116;8.424;2023-03-01T14:02:00;24.90;37.50
22290;DHT22;11313;50.116;8.424;2023-03-01T14:04:28;25.00;37.60
22290;DHT22;11313;50.116;8.424;2023-03-01T14:09:43;24.90;37.50
22290;DHT22;11313;50.116;8.424;2023-03-01T14:14:52;25.00;37.60
22290;DHT22;11313;50.116;8.424;2023-03-01T14:19:56;25.00;37.60
22290;DHT22;11313;50.116;8.424;2023-03-01T14:22:27;25.00;37.60
22290;DHT22;11313;50.116;8.424;2023-03-01T14:24:59;24.90;37.50
22290;DHT22;11313;50.116;8.424;2023-03-01T14:27:38;25.00;37.60
22290;DHT22;11313;50.116;8.424;2023-03-01T14:30:23;25.00;37.50
22290;DHT22;11313;50.116;8.424;2023-03-01T14:32:56;25.00;37.50
22290;DHT22;11313;50.116;8.424;2023-03-01T14:35:28;25.10;37.60
22290;DHT22;11313;50.116;8.424;2023-03-01T14:37:54;25.00;37.50
22290;DHT22;11313;50.116;8.424;2023-03-01T14:40:23;25.00;37.50
22290;DHT22;11313;50.116;8.424;2023-03-01T14:42:49;25.00;37.50
22290;DHT22;11313;50.116;8.424;2023-03-01T14:45:16;25.00;37.50
22290;DHT22;11313;50.116;8.424;2023-03-01T14:47:44;25.10;37.60
22290;DHT22;11313;50.116;8.424;2023-03-01T14:50:26;25.10;37.60
22290;DHT22;11313;50.116;8.424;2023-03-01T14:52:55;25.10;37.60
22290;DHT22;11313;50.116;8.424;2023-03-01T14:55:27;25.10;37.60
22290;DHT22;11313;50.116;8.424;2023-03-01T14:57:53;25.00;37.50
22290;DHT22;11313;50.116;8.424;2023-03-01T15:00:22;25.10;37.60
22290;DHT22;11313;50.116;8.424;2023-03-01T15:02:49;25.10;37.60
22290;DHT22;11313;50.116;8.424;2023-03-01T15:05:17;25.10;37.60
22290;DHT22;11313;50.116;8.424;2023-03-01T15:07:45;25.00;37.50
22290;DHT22;11313;50.116;8.424;2023-03-01T15:10:26;25.10;37.60
22290;DHT22;11313;50.116;8.424;2023-03-01T15:12:52;25.10;37.60
22290;DHT22;11313;50.116;8.424;2023-03-01T15:17:58;25.10;37.60
22290;DHT22;11313;50.116;8.424;2023-03-01T15:20:25;25.00;37.60
22290;DHT22;11313;50.116;8.424;2023-03-01T15:22:53;25.00;37.60
22290;DHT22;11313;50.116;8.424;2023-03-01T15:25:27;25.00;37.60
22290;DHT22;11313;50.116;8.424;2023-03-01T15:27:54;25.00;37.60
22290;DHT22;11313;50.116;8.424;2023-03-01T15:30:31;25.00;37.60
22290;DHT22;11313;50.116;8.424;2023-03-01T15:35:53;25.10;37.60
22290;DHT22;11313;50.116;8.424;2023-03-01T15:40:58;25.00;37.60
22290;DHT22;11313;50.116;8.424;2023-03-01T15:43:42;25.00;37.60
22290;DHT22;11313;50.116;8.424;2023-03-01T15:46:27;25.00;37.60
22290;DHT22;11313;50.116;8.424;2023-03-01T15:48:58;25.00;37.60
22290;DHT22;11313;50.116;8.424;2023-03-01T15:51:28;25.00;37.60
22290;DHT22;11313;50.116;8.424;2023-03-01T15:53:55;25.00;37.60
22290;DHT22;11313;50.116;8.424;2023-03-01T15:56:21;25.00;37.70
22290;DHT22;11313;50.116;8.424;2023-03-01T15:58:47;25.00;37.60
22290;DHT22;11313;50.116;8.424;2023-03-01T16:01:17;25.00;37.70
22290;DHT22;11313;50.116;8.424;2023-03-01T16:03:43;25.00;37.70
22290;DHT22;11313;50.116;8.424;2023-03-01T16:06:09;25.00;37.70
22290;DHT22;11313;50.116;8.424;2023-03-01T16:08:36;24.90;37.60
22290;DHT22;11313;50.116;8.424;2023-03-01T16:11:02;24.90;37.70
22290;DHT22;11313;50.116;8.424;2023-03-01T16:13:30;25.00;37.70
22290;DHT22;11313;50.116;8.424;2023-03-01T16:15:56;24.90;37.70
22290;DHT22;11313;50.116;8.424;2023-03-01T16:18:22;24.90;37.70
22290;DHT22;11313;50.116;8.424;2023-03-01T16:20:47;24.90;37.80
22290;DHT22;11313;50.116;8.424;2023-03-01T16:23:14;24.90;37.70
22290;DHT22;11313;50.116;8.424;2023-03-01T16:25:40;24.90;37.70
22290;DHT22;11313;50.116;8.424;2023-03-01T16:28:06;24.90;37.70
22290;DHT22;11313;50.116;8.424;2023-03-01T16:30:34;24.90;37.80
22290;DHT22;11313;50.116;8.424;2023-03-01T16:33:01;24.90;37.80
22290;DHT22;11313;50.116;8.424;2023-03-01T16:35:27;24.90;37.80
22290;DHT22;11313;50.116;8.424;2023-03-01T16:37:52;24.90;37.80
22290;DHT22;11313;50.116;8.424;2023-03-01T16:42:47;24.90;37.80
22290;DHT22;11313;50.116;8.424;2023-03-01T16:45:13;24.90;37.80
22290;DHT22;11313;50.116;8.424;2023-03-01T16:47:38;24.90;37.80
22290;DHT22;11313;50.116;8.424;2023-03-01T16:50:04;24.90;37.90
22290;DHT22;11313;50.116;8.424;2023-03-01T16:52:30;24.80;37.80
22290;DHT22;11313;50.116;8.424;2023-03-01T16:54:55;24.90;38.20
22290;DHT22;11313;50.116;8.424;2023-03-01T16:57:21;24.80;37.90
22290;DHT22;11313;50.116;8.424;2023-03-01T16:59:46;24.80;37.90
22290;DHT22;11313;50.116;8.424;2023-03-01T17:02:13;24.80;37.90
22290;DHT22;11313;50.116;8.424;2023-03-01T17:04:40;24.80;37.90
22290;DHT22;11313;50.116;8.424;2023-03-01T17:07:05;24.80;37.90
22290;DHT22;11313;50.116;8.424;2023-03-01T17:09:34;24.80;37.90
22290;DHT22;11313;50.116;8.424;2023-03-01T17:12:00;24.80;37.90
22290;DHT22;11313;50.116;8.424;2023-03-01T17:14:26;24.80;37.90
22290;DHT22;11313;50.116;8.424;2023-03-01T17:16:51;24.80;37.90
22290;DHT22;11313;50.116;8.424;2023-03-01T17:19:18;24.70;37.90
22290;DHT22;11313;50.116;8.424;2023-03-01T17:21:44;24.70;37.90
22290;DHT22;11313;50.116;8.424;2023-03-01T17:24:10;24.80;38.00
22290;DHT22;11313;50.116;8.424;2023-03-01T17:26:36;24.80;38.00
22290;DHT22;11313;50.116;8.424;2023-03-01T17:29:02;24.80;38.00
22290;DHT22;11313;50.116;8.424;2023-03-01T17:31:30;24.70;37.90
22290;DHT22;11313;50.116;8.424;2023-03-01T17:33:56;24.60;37.90